createdAt,value
2018-05-09T00:04:00.000Z,98074
2018-05-09T00:09:00.000Z,98063
2018-05-09T00:14:00.000Z,98066
2018-05-09T00:19:00.000Z,98050
2018-05-09T00:24:00.000Z,98047
2018-05-09T00:29:00.000Z,98039
2018-05-09T00:34:00.000Z,98041
2018-05-09T00:39:00.000Z,98043
2018-05-09T00:44:00.000Z,98036
2018-05-09T00:49:00.000Z,98035
2018-05-09T00:54:00.000Z,98022
2018-05-09T00:59:00.000Z,98030
2018-05-09T01:04:00.000Z,98036
2018-05-09T01:09:00.000Z,98042
2018-05-09T01:14:00.000Z,98027
2018-05-09T01:19:00.000Z,98025
2018-05-09T01:24:00.000Z,98032
2018-05-09T01:29:00.000Z,98025
2018-05-09T01:34:00.000Z,98026
2018-05-09T01:39:00.000Z,98011
2018-05-09T01:44:00.000Z,98013
2018-05-09T01:49:00.000Z,98008
2018-05-09T01:54:00.000Z,98017
2018-05-09T02:00:00.000Z,98015
2018-05-09T02:05:00.000Z,97998
2018-05-09T02:10:00.000Z,98004
2018-05-09T02:15:00.000Z,97995
2018-05-09T02:20:00.000Z,98006
2018-05-09T02:25:00.000Z,97998
2018-05-09T02:30:00.000Z,97991
2018-05-09T02:35:00.000Z,97994
2018-05-09T02:40:00.000Z,97992
2018-05-09T02:45:00.000Z,97986
2018-05-09T02:50:00.000Z,97969
2018-05-09T02:55:00.000Z,97978
2018-05-09T03:00:00.000Z,97973
2018-05-09T03:05:00.000Z,97993
2018-05-09T03:10:00.000Z,97978
2018-05-09T03:15:00.000Z,97980
2018-05-09T03:20:00.000Z,97993
2018-05-09T03:25:00.000Z,97997
2018-05-09T03:30:00.000Z,98000
2018-05-09T03:35:00.000Z,97998
2018-05-09T03:40:00.000Z,97990
2018-05-09T03:45:00.000Z,98005
2018-05-09T03:50:00.000Z,98008
2018-05-09T03:55:00.000Z,98003
2018-05-09T04:00:00.000Z,98002
2018-05-09T04:05:00.000Z,98003
2018-05-09T04:10:00.000Z,98005
2018-05-09T04:15:00.000Z,98004
2018-05-09T04:20:00.000Z,97996
2018-05-09T04:25:00.000Z,98007
2018-05-09T04:30:00.000Z,98015
2018-05-09T04:35:00.000Z,98007
2018-05-09T04:40:00.000Z,98006
2018-05-09T04:45:00.000Z,98012
2018-05-09T04:50:00.000Z,98013
2018-05-09T04:55:00.000Z,98010
2018-05-09T05:00:00.000Z,98017
2018-05-09T05:05:00.000Z,98005
2018-05-09T05:10:00.000Z,98011
2018-05-09T05:15:00.000Z,98011
2018-05-09T05:20:00.000Z,98025
2018-05-09T05:25:00.000Z,98024
2018-05-09T05:30:00.000Z,98027
2018-05-09T05:35:00.000Z,98021
2018-05-09T05:40:00.000Z,98015
2018-05-09T05:45:00.000Z,98027
2018-05-09T05:50:00.000Z,98022
2018-05-09T05:55:00.000Z,98017
2018-05-09T06:00:00.000Z,98017
2018-05-09T06:05:00.000Z,98022
2018-05-09T06:10:00.000Z,98028
2018-05-09T06:15:00.000Z,98035
2018-05-09T06:20:00.000Z,98041
2018-05-09T06:25:00.000Z,98033
2018-05-09T06:30:00.000Z,98039
2018-05-09T06:35:00.000Z,98040
2018-05-09T06:40:00.000Z,98039
2018-05-09T06:45:00.000Z,98037
2018-05-09T06:50:00.000Z,98032
2018-05-09T06:55:00.000Z,98026
2018-05-09T07:00:00.000Z,98030
2018-05-09T07:05:00.000Z,98032
2018-05-09T07:10:00.000Z,98036
2018-05-09T07:15:00.000Z,98049
2018-05-09T07:20:00.000Z,98051
2018-05-09T07:25:00.000Z,98061
2018-05-09T07:30:00.000Z,98063
2018-05-09T07:35:00.000Z,98066
2018-05-09T07:40:00.000Z,98059
2018-05-09T07:45:00.000Z,98057
2018-05-09T07:50:00.000Z,98067
2018-05-09T07:55:00.000Z,98064
2018-05-09T08:00:00.000Z,98067
2018-05-09T08:06:00.000Z,98069
2018-05-09T08:11:00.000Z,98073
2018-05-09T08:16:00.000Z,98078
2018-05-09T08:21:00.000Z,98076
2018-05-09T08:26:00.000Z,98078
2018-05-09T08:31:00.000Z,98080
2018-05-09T08:36:00.000Z,98075
2018-05-09T08:41:00.000Z,98057
2018-05-09T08:46:00.000Z,98069
2018-05-09T08:51:00.000Z,98070
2018-05-09T08:56:00.000Z,98066
2018-05-09T09:01:00.000Z,98072
2018-05-09T09:06:00.000Z,98069
2018-05-09T09:11:00.000Z,98064
2018-05-09T09:16:00.000Z,98064
2018-05-09T09:21:00.000Z,98069
2018-05-09T09:26:00.000Z,98072
2018-05-09T09:31:00.000Z,98074
2018-05-09T09:36:00.000Z,98066
2018-05-09T09:41:00.000Z,98058
2018-05-09T09:46:00.000Z,98056
2018-05-09T09:51:00.000Z,98053
2018-05-09T09:56:00.000Z,98053
2018-05-09T10:01:00.000Z,98057
2018-05-09T10:06:00.000Z,98054
2018-05-09T10:11:00.000Z,98063
2018-05-09T10:16:00.000Z,98060
2018-05-09T10:21:00.000Z,98053
2018-05-09T10:26:00.000Z,98045
2018-05-09T10:31:00.000Z,98057
2018-05-09T10:36:00.000Z,98038
2018-05-09T10:41:00.000Z,98036
2018-05-09T10:46:00.000Z,98036
2018-05-09T10:51:00.000Z,98046
2018-05-09T10:56:00.000Z,98040
2018-05-09T11:01:00.000Z,98030
2018-05-09T11:06:00.000Z,98029
2018-05-09T11:11:00.000Z,98016
2018-05-09T11:16:00.000Z,98009
2018-05-09T11:21:00.000Z,98017
2018-05-09T11:26:00.000Z,98005
2018-05-09T11:31:00.000Z,98000
2018-05-09T11:36:00.000Z,98000
2018-05-09T11:41:00.000Z,97988
2018-05-09T11:46:00.000Z,97983
2018-05-09T11:51:00.000Z,97978
2018-05-09T11:56:00.000Z,97967
2018-05-09T12:01:00.000Z,97961
2018-05-09T12:06:00.000Z,97948
2018-05-09T12:11:00.000Z,97937
2018-05-09T12:16:00.000Z,97936
2018-05-09T12:21:00.000Z,97931
2018-05-09T12:26:00.000Z,97923
2018-05-09T12:31:00.000Z,97934
2018-05-09T12:36:00.000Z,97928
2018-05-09T12:41:00.000Z,97926
2018-05-09T12:46:00.000Z,97917
2018-05-09T12:51:00.000Z,97908
2018-05-09T12:56:00.000Z,97900
2018-05-09T13:01:00.000Z,97895
2018-05-09T13:06:00.000Z,97882
2018-05-09T13:11:00.000Z,97882
2018-05-09T13:16:00.000Z,97897
2018-05-09T13:21:00.000Z,97915
2018-05-09T13:26:00.000Z,97925
2018-05-09T13:31:00.000Z,97921
2018-05-09T13:36:00.000Z,97911
2018-05-09T13:41:00.000Z,97912
2018-05-09T13:46:00.000Z,97914
2018-05-09T13:51:00.000Z,97900
2018-05-09T13:56:00.000Z,97907
2018-05-09T14:01:00.000Z,97900
2018-05-09T14:07:00.000Z,97893
2018-05-09T14:12:00.000Z,97882
2018-05-09T14:17:00.000Z,97887
2018-05-09T14:22:00.000Z,97879
2018-05-09T14:27:00.000Z,97876
2018-05-09T14:32:00.000Z,97871
2018-05-09T14:37:00.000Z,97859
2018-05-09T14:42:00.000Z,97850
2018-05-09T14:47:00.000Z,97858
2018-05-09T14:52:00.000Z,97869
2018-05-09T14:57:00.000Z,97856
2018-05-09T15:02:00.000Z,97855
2018-05-09T15:07:00.000Z,97855
2018-05-09T15:12:00.000Z,97856
2018-05-09T15:17:00.000Z,97858
2018-05-09T15:22:00.000Z,97852
2018-05-09T15:27:00.000Z,97834
2018-05-09T15:32:00.000Z,97826
2018-05-09T15:37:00.000Z,97830
2018-05-09T15:42:00.000Z,97830
2018-05-09T15:47:00.000Z,97835
2018-05-09T15:52:00.000Z,97823
2018-05-09T15:57:00.000Z,97823
2018-05-09T16:02:00.000Z,97822
2018-05-09T16:07:00.000Z,97826
2018-05-09T16:12:00.000Z,97820
2018-05-09T16:17:00.000Z,97826
2018-05-09T16:22:00.000Z,97838
2018-05-09T16:27:00.000Z,97841
2018-05-09T16:32:00.000Z,97835
2018-05-09T16:37:00.000Z,97840
2018-05-09T16:42:00.000Z,97844
2018-05-09T16:47:00.000Z,97845
2018-05-09T16:52:00.000Z,97849
2018-05-09T16:57:00.000Z,97841
2018-05-09T17:02:00.000Z,97846
2018-05-09T17:07:00.000Z,97846
2018-05-09T17:12:00.000Z,97844
2018-05-09T17:17:00.000Z,97860
2018-05-09T17:22:00.000Z,97857
2018-05-09T17:27:00.000Z,97864
2018-05-09T17:32:00.000Z,97854
2018-05-09T17:37:00.000Z,97857
2018-05-09T17:42:00.000Z,97866
2018-05-09T17:47:00.000Z,97853
2018-05-09T17:52:00.000Z,97857
2018-05-09T17:57:00.000Z,97859
2018-05-09T18:02:00.000Z,97859
2018-05-09T18:07:00.000Z,97865
2018-05-09T18:12:00.000Z,97860
2018-05-09T18:17:00.000Z,97865
2018-05-09T18:22:00.000Z,97861
2018-05-09T18:27:00.000Z,97866
2018-05-09T18:32:00.000Z,97862
2018-05-09T18:37:00.000Z,97861
2018-05-09T18:42:00.000Z,97866
2018-05-09T18:47:00.000Z,97872
2018-05-09T18:52:00.000Z,97875
2018-05-09T18:57:00.000Z,97873
2018-05-09T19:02:00.000Z,97880
2018-05-09T19:07:00.000Z,97880
2018-05-09T19:12:00.000Z,97884
2018-05-09T19:17:00.000Z,97884
2018-05-09T19:22:00.000Z,97891
2018-05-09T19:27:00.000Z,97887
2018-05-09T19:32:00.000Z,97893
2018-05-09T19:37:00.000Z,97893
2018-05-09T19:42:00.000Z,97893
2018-05-09T19:47:00.000Z,97896
2018-05-09T19:52:00.000Z,97889
2018-05-09T19:57:00.000Z,97898
2018-05-09T20:02:00.000Z,97901
2018-05-09T20:08:00.000Z,97903
2018-05-09T20:13:00.000Z,97894
2018-05-09T20:18:00.000Z,97907
2018-05-09T20:23:00.000Z,97902
2018-05-09T20:28:00.000Z,97909
2018-05-09T20:33:00.000Z,97918
2018-05-09T20:38:00.000Z,97915
2018-05-09T20:43:00.000Z,97914
2018-05-09T20:48:00.000Z,97913
2018-05-09T20:53:00.000Z,97923
2018-05-09T20:58:00.000Z,97929
2018-05-09T21:03:00.000Z,97932
2018-05-09T21:08:00.000Z,97926
2018-05-09T21:13:00.000Z,97927
2018-05-09T21:18:00.000Z,97927
2018-05-09T21:23:00.000Z,97935
2018-05-09T21:28:00.000Z,97943
2018-05-09T21:33:00.000Z,97944
2018-05-09T21:38:00.000Z,97944
2018-05-09T21:43:00.000Z,97946
2018-05-09T21:48:00.000Z,97949
2018-05-09T21:53:00.000Z,97929
2018-05-09T21:58:00.000Z,97926
2018-05-09T22:03:00.000Z,97924
2018-05-09T22:08:00.000Z,97921
2018-05-09T22:13:00.000Z,97912
2018-05-09T22:18:00.000Z,97926
2018-05-09T22:23:00.000Z,97928
2018-05-09T22:28:00.000Z,97924
2018-05-09T22:33:00.000Z,97914
2018-05-09T22:38:00.000Z,97907
2018-05-09T22:43:00.000Z,97910
2018-05-09T22:48:00.000Z,97908
2018-05-09T22:53:00.000Z,97908
2018-05-09T22:58:00.000Z,97910
2018-05-09T23:03:00.000Z,97905
2018-05-09T23:08:00.000Z,97911
2018-05-09T23:13:00.000Z,97897
2018-05-09T23:18:00.000Z,97904
2018-05-09T23:23:00.000Z,97913
2018-05-09T23:28:00.000Z,97909
2018-05-09T23:33:00.000Z,97887
2018-05-09T23:38:00.000Z,97904
2018-05-09T23:43:00.000Z,97905
2018-05-09T23:48:00.000Z,97903
2018-05-09T23:53:00.000Z,97898
2018-05-09T23:58:00.000Z,97900
